createdAt,value
2023-05-05T00:01:30.249Z,1.73
2023-05-05T00:04:32.340Z,1.45
2023-05-05T00:07:34.349Z,1.50
2023-05-05T00:10:36.716Z,1.13
2023-05-05T00:13:39.287Z,1.00
2023-05-05T00:16:41.254Z,1.40
2023-05-05T00:19:43.370Z,1.13
2023-05-05T00:22:45.314Z,1.48
2023-05-05T00:25:47.324Z,1.27
2023-05-05T00:28:49.614Z,1.93
2023-05-05T00:31:52.274Z,1.17
2023-05-05T00:34:55.080Z,1.33
2023-05-05T00:37:57.076Z,1.70
2023-05-05T00:40:59.136Z,1.35
2023-05-05T00:44:02.032Z,1.10
2023-05-05T00:47:04.145Z,1.42
2023-05-05T00:50:09.465Z,1.13
2023-05-05T00:53:12.085Z,1.27
2023-05-05T00:56:15.772Z,1.60
2023-05-05T00:59:17.816Z,0.95
2023-05-05T01:02:19.792Z,1.38
2023-05-05T01:05:23.749Z,1.40
2023-05-05T01:08:38.058Z,1.50
2023-05-05T01:11:59.717Z,1.63
2023-05-05T01:15:19.258Z,1.20
2023-05-05T01:18:33.208Z,1.23
2023-05-05T01:21:47.013Z,1.17
2023-05-05T01:25:12.659Z,1.43
2023-05-05T01:28:51.656Z,1.77
2023-05-05T01:31:57.087Z,1.25
2023-05-05T01:35:08.275Z,1.00
2023-05-05T01:38:34.753Z,1.53
2023-05-05T01:42:04.998Z,1.27
2023-05-05T01:45:09.370Z,1.08
2023-05-05T01:48:15.288Z,0.88
2023-05-05T01:51:20.329Z,1.43
2023-05-05T01:54:24.298Z,1.10
2023-05-05T01:57:29.555Z,2.22
2023-05-05T02:00:32.879Z,1.70
2023-05-05T02:03:37.634Z,1.13
2023-05-05T02:06:40.543Z,1.67
2023-05-05T02:09:44.309Z,1.38
2023-05-05T02:12:47.643Z,1.23
2023-05-05T02:15:51.275Z,2.03
2023-05-05T02:18:54.392Z,1.10
2023-05-05T02:21:57.371Z,1.42
2023-05-05T02:24:59.376Z,1.33
2023-05-05T02:28:03.763Z,1.10
2023-05-05T02:31:08.544Z,1.30
2023-05-05T02:34:13.519Z,1.15
2023-05-05T02:37:21.514Z,1.52
2023-05-05T02:40:30.465Z,1.65
2023-05-05T02:43:34.115Z,1.70
2023-05-05T02:46:37.983Z,1.35
2023-05-05T02:49:40.342Z,1.30
2023-05-05T02:52:42.617Z,1.10
2023-05-05T02:55:51.969Z,1.30
2023-05-05T02:59:09.054Z,1.42
2023-05-05T03:02:36.110Z,1.08
2023-05-05T03:05:45.884Z,1.40
2023-05-05T03:09:03.269Z,1.63
2023-05-05T03:12:10.618Z,1.67
2023-05-05T03:15:30.375Z,1.48
2023-05-05T03:18:37.788Z,1.23
2023-05-05T03:21:40.592Z,1.42
2023-05-05T03:24:43.011Z,1.08
2023-05-05T03:27:46.295Z,1.17
2023-05-05T03:30:51.660Z,1.90
2023-05-05T03:33:54.788Z,1.27
2023-05-05T03:37:00.434Z,2.10
2023-05-05T03:40:02.445Z,1.77
2023-05-05T03:43:05.997Z,1.77
2023-05-05T03:46:08.123Z,2.33
2023-05-05T03:49:10.373Z,1.38
2023-05-05T03:52:15.150Z,2.35
2023-05-05T03:55:18.756Z,1.38
2023-05-05T03:58:20.885Z,1.45
2023-05-05T04:01:23.507Z,2.08
2023-05-05T04:04:26.175Z,1.63
2023-05-05T04:07:28.684Z,1.67
2023-05-05T04:10:30.753Z,1.70
2023-05-05T04:13:33.469Z,1.23
2023-05-05T04:16:35.497Z,2.03
2023-05-05T04:19:37.709Z,1.80
2023-05-05T04:22:40.258Z,1.40
2023-05-05T04:25:42.408Z,1.10
2023-05-05T04:28:45.557Z,1.13
2023-05-05T04:31:48.138Z,1.33
2023-05-05T04:34:50.398Z,1.10
2023-05-05T04:37:54.575Z,1.53
2023-05-05T04:40:56.760Z,1.90
2023-05-05T04:43:58.704Z,1.80
2023-05-05T04:47:01.652Z,1.80
2023-05-05T04:50:04.057Z,1.13
2023-05-05T04:53:06.118Z,1.33
2023-05-05T04:56:08.556Z,1.52
2023-05-05T04:59:10.819Z,1.70
2023-05-05T05:02:13.189Z,1.90
2023-05-05T05:05:15.324Z,1.48
2023-05-05T05:08:17.983Z,1.83
2023-05-05T05:11:20.046Z,1.30
2023-05-05T05:14:22.288Z,0.98
2023-05-05T05:17:25.147Z,1.30
2023-05-05T05:20:27.396Z,1.73
2023-05-05T05:23:29.678Z,1.90
2023-05-05T05:26:31.949Z,1.30
2023-05-05T05:29:34.899Z,0.98
2023-05-05T05:32:37.449Z,1.40
2023-05-05T05:35:39.821Z,1.17
2023-05-05T05:38:42.373Z,1.40
2023-05-05T05:41:44.852Z,1.27
2023-05-05T05:44:46.900Z,1.17
2023-05-05T05:47:49.482Z,1.70
2023-05-05T05:50:51.498Z,1.50
2023-05-05T05:53:53.905Z,1.70
2023-05-05T05:56:55.821Z,1.20
2023-05-05T05:59:58.846Z,1.35
2023-05-05T06:03:02.617Z,1.60
2023-05-05T06:06:07.845Z,1.58
2023-05-05T06:09:10.172Z,1.40
2023-05-05T06:12:12.602Z,1.52
2023-05-05T06:15:14.880Z,1.60
2023-05-05T06:18:16.918Z,1.83
2023-05-05T06:21:20.714Z,1.52
2023-05-05T06:24:22.782Z,1.03
2023-05-05T06:27:24.780Z,1.35
2023-05-05T06:30:26.872Z,1.30
2023-05-05T06:33:28.763Z,1.63
2023-05-05T06:36:32.454Z,1.52
2023-05-05T06:39:34.487Z,1.40
2023-05-05T06:42:36.861Z,1.25
2023-05-05T06:45:43.863Z,1.08
2023-05-05T06:48:46.969Z,1.50
2023-05-05T06:51:48.947Z,1.35
2023-05-05T06:54:51.418Z,1.30
2023-05-05T06:57:53.532Z,1.77
2023-05-05T07:00:55.629Z,1.10
2023-05-05T07:03:57.694Z,1.67
2023-05-05T07:06:59.779Z,1.20
2023-05-05T07:10:01.889Z,1.33
2023-05-05T07:13:03.970Z,1.25
2023-05-05T07:16:06.224Z,1.40
2023-05-05T07:19:08.584Z,1.40
2023-05-05T07:22:10.821Z,1.60
2023-05-05T07:25:12.885Z,1.33
2023-05-05T07:28:15.520Z,1.80
2023-05-05T07:31:19.924Z,1.52
2023-05-05T07:34:22.197Z,1.00
2023-05-05T07:37:24.251Z,1.23
2023-05-05T07:40:26.332Z,1.27
2023-05-05T07:43:28.380Z,1.10
2023-05-05T07:46:30.510Z,1.20
2023-05-05T07:49:32.546Z,1.13
2023-05-05T07:52:44.993Z,1.35
2023-05-05T07:55:50.456Z,1.53
2023-05-05T07:58:52.394Z,1.40
2023-05-05T08:01:55.012Z,1.65
2023-05-05T08:04:57.441Z,1.50
2023-05-05T08:07:59.560Z,1.75
2023-05-05T08:11:01.704Z,1.40
2023-05-05T08:14:03.870Z,1.50
2023-05-05T08:17:05.896Z,1.60
2023-05-05T08:20:08.561Z,1.42
2023-05-05T08:23:10.912Z,1.33
2023-05-05T08:26:12.937Z,1.33
2023-05-05T08:29:15.086Z,1.60
2023-05-05T08:32:17.957Z,1.83
2023-05-05T08:35:20.054Z,1.50
2023-05-05T08:38:22.271Z,1.45
2023-05-05T08:41:25.081Z,1.50
2023-05-05T08:44:28.893Z,1.27
2023-05-05T08:47:32.298Z,1.50
2023-05-05T08:50:36.085Z,1.58
2023-05-05T08:53:51.393Z,1.85
2023-05-05T08:56:54.877Z,2.50
2023-05-05T08:59:58.042Z,1.47
2023-05-05T09:03:01.511Z,1.50
2023-05-05T09:06:04.333Z,1.48
2023-05-05T09:09:06.846Z,2.08
2023-05-05T09:12:08.922Z,1.47
2023-05-05T09:15:13.381Z,1.90
2023-05-05T09:18:15.877Z,1.60
2023-05-05T09:21:26.025Z,1.70
2023-05-05T09:24:28.102Z,1.98
2023-05-05T09:27:30.454Z,1.90
2023-05-05T09:30:32.620Z,2.50
2023-05-05T09:33:34.867Z,2.47
2023-05-05T09:36:47.462Z,1.83
2023-05-05T09:39:56.165Z,1.55
2023-05-05T09:43:02.944Z,1.63
2023-05-05T09:46:08.427Z,2.23
2023-05-05T09:49:20.068Z,1.83
2023-05-05T09:52:22.440Z,2.75
2023-05-05T09:55:25.082Z,2.03
2023-05-05T09:58:28.615Z,2.00
2023-05-05T10:01:30.619Z,1.87
2023-05-05T10:04:32.667Z,1.80
2023-05-05T10:07:35.482Z,1.70
2023-05-05T10:10:43.855Z,1.70
2023-05-05T10:13:46.442Z,1.60
2023-05-05T10:16:52.903Z,1.80
2023-05-05T10:19:57.440Z,1.80
2023-05-05T10:23:02.719Z,1.77
2023-05-05T10:26:10.299Z,2.10
2023-05-05T10:29:50.123Z,1.63
2023-05-05T10:33:12.284Z,2.03
2023-05-05T10:36:20.222Z,1.90
2023-05-05T10:39:23.891Z,1.90
2023-05-05T10:42:26.003Z,1.77
2023-05-05T10:45:28.106Z,1.77
2023-05-05T10:48:38.055Z,1.77
2023-05-05T10:51:41.156Z,1.67
2023-05-05T10:55:06.841Z,2.10
2023-05-05T10:58:08.796Z,1.40
2023-05-05T11:01:10.851Z,1.77
2023-05-05T11:04:19.947Z,1.87
2023-05-05T11:07:23.348Z,1.55
2023-05-05T11:10:26.380Z,1.67
2023-05-05T11:13:28.526Z,1.52
2023-05-05T11:16:47.823Z,2.13
2023-05-05T11:19:52.234Z,1.67
2023-05-05T11:23:03.778Z,1.70
2023-05-05T11:26:06.028Z,1.50
2023-05-05T11:29:08.404Z,1.52
2023-05-05T11:32:12.231Z,2.00
2023-05-05T11:35:15.353Z,1.50
2023-05-05T11:38:19.069Z,1.55
2023-05-05T11:41:33.348Z,1.75
2023-05-05T11:44:35.947Z,1.70
2023-05-05T11:47:38.146Z,1.77
2023-05-05T11:50:40.944Z,1.67
2023-05-05T11:53:44.048Z,1.50
2023-05-05T11:57:00.594Z,1.50
2023-05-05T12:00:05.886Z,1.60
2023-05-05T12:03:08.840Z,1.30
2023-05-05T12:06:10.954Z,1.30
2023-05-05T12:09:20.602Z,1.48
2023-05-05T12:12:35.206Z,1.30
2023-05-05T12:15:37.151Z,1.40
2023-05-05T12:18:40.374Z,1.30
2023-05-05T12:21:45.748Z,1.50
2023-05-05T12:24:55.104Z,1.60
2023-05-05T12:27:57.353Z,1.50
2023-05-05T12:30:59.672Z,1.38
2023-05-05T12:34:03.878Z,1.63
2023-05-05T12:37:06.070Z,1.47
2023-05-05T12:40:28.411Z,1.38
2023-05-05T12:43:33.362Z,1.40
2023-05-05T12:46:48.858Z,1.83
2023-05-05T12:49:51.836Z,1.70
2023-05-05T12:52:54.387Z,1.50
2023-05-05T12:55:56.347Z,1.67
2023-05-05T12:58:58.541Z,1.60
2023-05-05T13:02:03.297Z,1.42
2023-05-05T13:05:05.792Z,1.27
2023-05-05T13:08:08.010Z,1.20
2023-05-05T13:11:10.339Z,1.60
2023-05-05T13:14:12.275Z,1.40
2023-05-05T13:17:14.775Z,1.45
2023-05-05T13:20:17.069Z,1.50
2023-05-05T13:23:19.955Z,1.40
2023-05-05T13:26:21.903Z,1.60
2023-05-05T13:29:27.865Z,1.20
2023-05-05T13:32:32.965Z,1.27
2023-05-05T13:35:34.986Z,1.50
2023-05-05T13:38:37.787Z,1.60
2023-05-05T13:41:40.181Z,1.73
2023-05-05T13:44:42.157Z,1.35
2023-05-05T13:47:45.155Z,1.48
2023-05-05T13:50:47.367Z,1.73
2023-05-05T13:53:49.326Z,1.50
2023-05-05T13:56:51.319Z,1.60
2023-05-05T13:59:53.292Z,1.30
2023-05-05T14:02:55.397Z,1.70
2023-05-05T14:05:57.974Z,1.50
2023-05-05T14:09:00.054Z,2.30
2023-05-05T14:12:02.410Z,1.42
2023-05-05T14:15:04.938Z,1.52
2023-05-05T14:18:07.437Z,1.20
2023-05-05T14:21:09.776Z,1.60
2023-05-05T14:24:11.769Z,1.50
2023-05-05T14:27:13.686Z,1.65
2023-05-05T14:30:15.894Z,1.40
2023-05-05T14:33:18.278Z,1.48
2023-05-05T14:36:20.440Z,1.50
2023-05-05T14:39:22.986Z,1.53
2023-05-05T14:42:25.821Z,1.52
2023-05-05T14:45:29.635Z,1.40
2023-05-05T14:48:32.613Z,1.50
2023-05-05T14:51:34.655Z,1.40
2023-05-05T14:54:36.908Z,1.43
2023-05-05T14:57:39.022Z,1.88
2023-05-05T15:00:41.073Z,1.50
2023-05-05T15:03:43.188Z,1.50
2023-05-05T15:06:45.417Z,1.43
2023-05-05T15:09:47.480Z,1.40
2023-05-05T15:12:51.013Z,1.20
2023-05-05T15:15:53.187Z,1.38
2023-05-05T15:18:56.727Z,1.35
2023-05-05T15:21:58.748Z,1.33
2023-05-05T15:25:01.375Z,1.13
2023-05-05T15:28:03.387Z,1.30
2023-05-05T15:31:06.356Z,1.40
2023-05-05T15:34:08.770Z,1.50
2023-05-05T15:37:10.783Z,1.40
2023-05-05T15:40:12.992Z,1.53
2023-05-05T15:43:14.989Z,1.52
2023-05-05T15:46:17.035Z,1.40
2023-05-05T15:49:19.292Z,1.15
2023-05-05T15:52:21.497Z,1.00
2023-05-05T15:55:24.197Z,1.50
2023-05-05T15:58:26.249Z,1.20
2023-05-05T16:01:28.451Z,1.50
2023-05-05T16:04:30.839Z,1.45
2023-05-05T16:07:32.942Z,1.70
2023-05-05T16:10:34.898Z,1.53
2023-05-05T16:13:39.144Z,1.20
2023-05-05T16:16:41.256Z,1.45
2023-05-05T16:19:43.419Z,1.30
2023-05-05T16:22:45.977Z,1.53
2023-05-05T16:25:47.942Z,0.97
2023-05-05T16:28:49.897Z,1.42
2023-05-05T16:31:52.186Z,1.38
2023-05-05T16:34:54.192Z,1.80
2023-05-05T16:37:56.437Z,1.40
2023-05-05T16:40:58.508Z,1.93
2023-05-05T16:44:00.766Z,1.42
2023-05-05T16:47:02.949Z,1.33
2023-05-05T16:50:06.000Z,1.48
2023-05-05T16:53:08.967Z,1.20
2023-05-05T16:56:14.081Z,1.67
2023-05-05T16:59:18.324Z,1.23
2023-05-05T17:02:20.434Z,1.40
2023-05-05T17:05:22.701Z,1.45
2023-05-05T17:08:34.642Z,1.57
2023-05-05T17:11:36.752Z,1.03
2023-05-05T17:14:39.714Z,1.23
2023-05-05T17:17:43.046Z,1.35
2023-05-05T17:20:45.338Z,1.25
2023-05-05T17:23:47.399Z,1.27
2023-05-05T17:26:49.972Z,1.00
2023-05-05T17:29:52.045Z,1.40
2023-05-05T17:32:54.165Z,1.73
2023-05-05T17:35:56.075Z,1.10
2023-05-05T17:38:58.090Z,1.97
2023-05-05T17:42:00.121Z,1.30
2023-05-05T17:45:03.122Z,1.95
2023-05-05T17:48:05.536Z,1.13
2023-05-05T17:51:07.588Z,1.10
2023-05-05T17:54:09.735Z,1.40
2023-05-05T17:57:12.882Z,1.57
2023-05-05T18:00:15.300Z,1.30
2023-05-05T18:03:17.405Z,2.13
2023-05-05T18:06:19.634Z,2.25
2023-05-05T18:09:22.164Z,2.20
2023-05-05T18:12:24.314Z,2.00
2023-05-05T18:15:26.628Z,1.90
2023-05-05T18:18:29.207Z,2.35
2023-05-05T18:21:32.008Z,2.13
2023-05-05T18:24:34.243Z,2.20
2023-05-05T18:27:36.327Z,2.10
2023-05-05T18:30:38.586Z,2.33
2023-05-05T18:33:40.835Z,3.13
2023-05-05T18:36:42.824Z,3.10
2023-05-05T18:39:45.229Z,3.87
2023-05-05T18:42:47.318Z,3.83
2023-05-05T18:45:50.715Z,4.43
2023-05-05T18:48:52.705Z,4.47
2023-05-05T18:51:56.602Z,3.88
2023-05-05T18:54:59.738Z,3.33
2023-05-05T18:58:01.836Z,3.00
2023-05-05T19:01:03.980Z,2.67
2023-05-05T19:04:15.511Z,3.47
2023-05-05T19:07:33.631Z,2.92
2023-05-05T19:10:37.549Z,2.60
2023-05-05T19:13:41.453Z,2.35
2023-05-05T19:16:44.117Z,1.98
2023-05-05T19:19:46.223Z,2.08
2023-05-05T19:22:48.374Z,1.95
2023-05-05T19:25:52.765Z,2.17
2023-05-05T19:28:54.953Z,2.45
2023-05-05T19:31:57.275Z,2.47
2023-05-05T19:35:00.332Z,1.88
2023-05-05T19:38:02.367Z,1.30
2023-05-05T19:41:04.382Z,2.10
2023-05-05T19:44:06.530Z,1.50
2023-05-05T19:47:09.047Z,1.73
2023-05-05T19:50:15.182Z,1.65
2023-05-05T19:53:17.418Z,1.77
2023-05-05T19:56:19.516Z,1.93
2023-05-05T19:59:22.058Z,2.53
2023-05-05T20:02:26.537Z,2.92
2023-05-05T20:05:28.880Z,2.00
2023-05-05T20:08:30.920Z,2.28
2023-05-05T20:11:33.437Z,2.13
2023-05-05T20:14:35.724Z,2.35
2023-05-05T20:17:37.842Z,2.50
2023-05-05T20:20:39.974Z,2.50
2023-05-05T20:23:42.975Z,2.03
2023-05-05T20:26:44.986Z,2.43
2023-05-05T20:29:47.448Z,1.88
2023-05-05T20:32:49.437Z,1.92
2023-05-05T20:35:51.510Z,1.73
2023-05-05T20:38:53.509Z,1.80
2023-05-05T20:41:55.671Z,1.60
2023-05-05T20:44:57.858Z,1.52
2023-05-05T20:48:00.806Z,1.92
2023-05-05T20:51:06.297Z,1.63
2023-05-05T20:54:09.999Z,1.60
2023-05-05T20:57:12.026Z,1.53
2023-05-05T21:00:14.284Z,1.88
2023-05-05T21:03:16.334Z,1.85
2023-05-05T21:06:19.557Z,1.85
2023-05-05T21:09:21.984Z,1.33
2023-05-05T21:12:24.007Z,1.80
2023-05-05T21:15:26.055Z,1.95
2023-05-05T21:18:28.169Z,1.77
2023-05-05T21:21:30.342Z,1.75
2023-05-05T21:24:32.668Z,1.92
2023-05-05T21:27:34.576Z,1.83
2023-05-05T21:30:36.639Z,2.13
2023-05-05T21:33:38.682Z,2.63
2023-05-05T21:36:40.933Z,1.52
2023-05-05T21:39:42.991Z,2.13
2023-05-05T21:42:45.178Z,2.07
2023-05-05T21:45:47.384Z,1.95
2023-05-05T21:48:49.558Z,2.15
2023-05-05T21:51:51.770Z,1.95
2023-05-05T21:54:53.865Z,1.95
2023-05-05T21:57:55.789Z,2.37
2023-05-05T22:00:57.817Z,2.35
2023-05-05T22:03:59.861Z,1.95
2023-05-05T22:07:01.878Z,2.05
2023-05-05T22:10:04.034Z,1.92
2023-05-05T22:13:06.612Z,1.57
2023-05-05T22:16:09.612Z,2.08
2023-05-05T22:19:11.948Z,2.03
2023-05-05T22:22:13.944Z,1.85
2023-05-05T22:25:16.267Z,1.73
2023-05-05T22:28:18.194Z,2.03
2023-05-05T22:31:20.554Z,2.17
2023-05-05T22:34:23.887Z,1.85
2023-05-05T22:37:26.010Z,2.05
2023-05-05T22:40:28.016Z,1.80
2023-05-05T22:43:29.998Z,1.60
2023-05-05T22:46:32.028Z,2.67
2023-05-05T22:49:34.246Z,2.08
2023-05-05T22:52:36.612Z,2.22
2023-05-05T22:55:38.517Z,2.78
2023-05-05T22:58:40.602Z,2.00
2023-05-05T23:01:42.620Z,2.53
2023-05-05T23:04:45.155Z,2.35
2023-05-05T23:07:47.270Z,2.00
2023-05-05T23:10:49.536Z,1.98
2023-05-05T23:13:51.671Z,1.90
2023-05-05T23:16:53.832Z,2.05
2023-05-05T23:19:55.932Z,1.95
2023-05-05T23:22:57.871Z,2.47
2023-05-05T23:25:59.888Z,1.52
2023-05-05T23:29:01.839Z,2.17
2023-05-05T23:32:04.020Z,2.22
2023-05-05T23:35:06.513Z,2.05
2023-05-05T23:38:08.583Z,2.20
2023-05-05T23:41:10.896Z,2.33
2023-05-05T23:44:13.194Z,2.20
2023-05-05T23:47:15.561Z,2.58
2023-05-05T23:50:17.697Z,2.08
2023-05-05T23:53:19.954Z,3.25
2023-05-05T23:56:21.941Z,2.47
2023-05-05T23:59:24.171Z,3.63
